sensor_id;sensor_type;location;lat;lon;timestamp;P1;durP1;ratioP1;P2;durP2;ratioP2
24873;SDS011;12945;42.648;23.370;2023-12-20T00:00:56;29.05;;;15.07;;
24873;SDS011;12945;42.648;23.370;2023-12-20T00:03:21;30.77;;;16.40;;
24873;SDS011;12945;42.648;23.370;2023-12-20T00:05:47;29.70;;;15.57;;
24873;SDS011;12945;42.648;23.370;2023-12-20T00:08:12;33.83;;;17.63;;
24873;SDS011;12945;42.648;23.370;2023-12-20T00:10:37;34.22;;;18.08;;
24873;SDS011;12945;42.648;23.370;2023-12-20T00:13:03;39.88;;;21.50;;
24873;SDS011;12945;42.648;23.370;2023-12-20T00:15:28;47.90;;;25.30;;
24873;SDS011;12945;42.648;23.370;2023-12-20T00:17:53;58.25;;;30.17;;
24873;SDS011;12945;42.648;23.370;2023-12-20T00:20:19;84.82;;;44.50;;
24873;SDS011;12945;42.648;23.370;2023-12-20T00:22:44;75.30;;;40.03;;
24873;SDS011;12945;42.648;23.370;2023-12-20T00:25:09;59.08;;;31.00;;
24873;SDS011;12945;42.648;23.370;2023-12-20T00:27:34;61.75;;;30.42;;
24873;SDS011;12945;42.648;23.370;2023-12-20T00:30:00;50.45;;;26.73;;
24873;SDS011;12945;42.648;23.370;2023-12-20T00:32:25;53.85;;;28.40;;
24873;SDS011;12945;42.648;23.370;2023-12-20T00:34:50;35.90;;;21.10;;
24873;SDS011;12945;42.648;23.370;2023-12-20T00:37:16;39.25;;;20.92;;
24873;SDS011;12945;42.648;23.370;2023-12-20T00:39:41;42.38;;;21.52;;
24873;SDS011;12945;42.648;23.370;2023-12-20T00:42:06;45.70;;;24.98;;
24873;SDS011;12945;42.648;23.370;2023-12-20T00:44:32;43.17;;;23.30;;
24873;SDS011;12945;42.648;23.370;2023-12-20T00:46:57;47.20;;;22.75;;
24873;SDS011;12945;42.648;23.370;2023-12-20T00:49:22;41.97;;;21.10;;
24873;SDS011;12945;42.648;23.370;2023-12-20T00:51:48;36.90;;;19.90;;
24873;SDS011;12945;42.648;23.370;2023-12-20T00:54:15;33.45;;;18.63;;
24873;SDS011;12945;42.648;23.370;2023-12-20T00:56:40;32.15;;;17.42;;
24873;SDS011;12945;42.648;23.370;2023-12-20T00:59:06;39.75;;;19.08;;
24873;SDS011;12945;42.648;23.370;2023-12-20T01:01:31;40.53;;;20.15;;
24873;SDS011;12945;42.648;23.370;2023-12-20T01:03:58;45.50;;;22.23;;
24873;SDS011;12945;42.648;23.370;2023-12-20T01:06:23;42.08;;;17.75;;
24873;SDS011;12945;42.648;23.370;2023-12-20T01:08:48;28.08;;;13.20;;
24873;SDS011;12945;42.648;23.370;2023-12-20T01:11:13;25.35;;;12.32;;
24873;SDS011;12945;42.648;23.370;2023-12-20T01:13:39;30.15;;;13.85;;
24873;SDS011;12945;42.648;23.370;2023-12-20T01:16:04;24.15;;;13.43;;
24873;SDS011;12945;42.648;23.370;2023-12-20T01:18:29;34.65;;;16.98;;
24873;SDS011;12945;42.648;23.370;2023-12-20T01:20:55;34.35;;;16.83;;
24873;SDS011;12945;42.648;23.370;2023-12-20T01:23:20;21.02;;;11.93;;
24873;SDS011;12945;42.648;23.370;2023-12-20T01:25:45;26.52;;;12.63;;
24873;SDS011;12945;42.648;23.370;2023-12-20T01:28:11;21.10;;;10.82;;
24873;SDS011;12945;42.648;23.370;2023-12-20T01:30:36;19.83;;;10.70;;
24873;SDS011;12945;42.648;23.370;2023-12-20T01:33:02;19.77;;;10.02;;
24873;SDS011;12945;42.648;23.370;2023-12-20T01:35:27;21.02;;;10.55;;
24873;SDS011;12945;42.648;23.370;2023-12-20T01:37:52;16.83;;;8.82;;
24873;SDS011;12945;42.648;23.370;2023-12-20T01:40:21;14.05;;;8.13;;
24873;SDS011;12945;42.648;23.370;2023-12-20T01:42:47;15.05;;;9.35;;
24873;SDS011;12945;42.648;23.370;2023-12-20T01:45:12;19.10;;;9.32;;
24873;SDS011;12945;42.648;23.370;2023-12-20T01:47:37;16.08;;;9.23;;
24873;SDS011;12945;42.648;23.370;2023-12-20T01:50:02;18.88;;;9.20;;
24873;SDS011;12945;42.648;23.370;2023-12-20T01:52:28;18.42;;;9.85;;
24873;SDS011;12945;42.648;23.370;2023-12-20T01:54:54;18.02;;;10.10;;
24873;SDS011;12945;42.648;23.370;2023-12-20T01:57:26;22.90;;;10.85;;
24873;SDS011;12945;42.648;23.370;2023-12-20T01:59:51;18.77;;;10.90;;
24873;SDS011;12945;42.648;23.370;2023-12-20T02:02:16;21.15;;;11.77;;
24873;SDS011;12945;42.648;23.370;2023-12-20T02:04:42;19.13;;;10.55;;
24873;SDS011;12945;42.648;23.370;2023-12-20T02:07:08;19.10;;;11.52;;
24873;SDS011;12945;42.648;23.370;2023-12-20T02:09:34;21.73;;;10.32;;
24873;SDS011;12945;42.648;23.370;2023-12-20T02:11:59;23.67;;;12.18;;
24873;SDS011;12945;42.648;23.370;2023-12-20T02:14:25;20.63;;;11.30;;
24873;SDS011;12945;42.648;23.370;2023-12-20T02:16:50;21.38;;;10.88;;
24873;SDS011;12945;42.648;23.370;2023-12-20T02:19:16;20.75;;;10.65;;
24873;SDS011;12945;42.648;23.370;2023-12-20T02:21:42;22.45;;;11.65;;
24873;SDS011;12945;42.648;23.370;2023-12-20T02:24:07;20.23;;;10.88;;
24873;SDS011;12945;42.648;23.370;2023-12-20T02:26:33;21.83;;;11.15;;
24873;SDS011;12945;42.648;23.370;2023-12-20T02:28:59;19.08;;;10.23;;
24873;SDS011;12945;42.648;23.370;2023-12-20T02:31:24;18.17;;;10.18;;
24873;SDS011;12945;42.648;23.370;2023-12-20T02:33:49;20.13;;;11.10;;
24873;SDS011;12945;42.648;23.370;2023-12-20T02:36:14;25.38;;;13.57;;
24873;SDS011;12945;42.648;23.370;2023-12-20T02:38:40;27.45;;;13.95;;
24873;SDS011;12945;42.648;23.370;2023-12-20T02:41:05;20.23;;;11.18;;
24873;SDS011;12945;42.648;23.370;2023-12-20T02:43:30;25.48;;;12.23;;
24873;SDS011;12945;42.648;23.370;2023-12-20T02:45:55;20.77;;;11.18;;
24873;SDS011;12945;42.648;23.370;2023-12-20T02:48:21;22.77;;;12.52;;
24873;SDS011;12945;42.648;23.370;2023-12-20T02:50:46;19.40;;;11.38;;
24873;SDS011;12945;42.648;23.370;2023-12-20T02:53:13;21.15;;;11.13;;
24873;SDS011;12945;42.648;23.370;2023-12-20T02:55:38;33.72;;;15.52;;
24873;SDS011;12945;42.648;23.370;2023-12-20T02:58:03;38.63;;;18.02;;
24873;SDS011;12945;42.648;23.370;2023-12-20T03:00:28;43.25;;;21.35;;
24873;SDS011;12945;42.648;23.370;2023-12-20T03:02:54;51.50;;;24.38;;
24873;SDS011;12945;42.648;23.370;2023-12-20T03:05:19;86.70;;;42.03;;
24873;SDS011;12945;42.648;23.370;2023-12-20T03:07:45;115.90;;;56.42;;
24873;SDS011;12945;42.648;23.370;2023-12-20T03:10:11;133.18;;;67.40;;
24873;SDS011;12945;42.648;23.370;2023-12-20T03:12:36;154.57;;;76.53;;
24873;SDS011;12945;42.648;23.370;2023-12-20T03:15:02;149.15;;;73.07;;
24873;SDS011;12945;42.648;23.370;2023-12-20T03:17:27;132.88;;;67.43;;
24873;SDS011;12945;42.648;23.370;2023-12-20T03:19:52;132.82;;;68.60;;
24873;SDS011;12945;42.648;23.370;2023-12-20T03:22:17;132.98;;;68.60;;
24873;SDS011;12945;42.648;23.370;2023-12-20T03:24:43;116.90;;;57.30;;
24873;SDS011;12945;42.648;23.370;2023-12-20T03:27:08;121.53;;;58.63;;
24873;SDS011;12945;42.648;23.370;2023-12-20T03:29:33;121.85;;;60.42;;
24873;SDS011;12945;42.648;23.370;2023-12-20T03:31:58;125.95;;;64.47;;
24873;SDS011;12945;42.648;23.370;2023-12-20T03:34:24;114.35;;;57.25;;
24873;SDS011;12945;42.648;23.370;2023-12-20T03:36:49;119.13;;;61.90;;
24873;SDS011;12945;42.648;23.370;2023-12-20T03:39:14;115.05;;;57.03;;
24873;SDS011;12945;42.648;23.370;2023-12-20T03:41:39;113.53;;;59.17;;
24873;SDS011;12945;42.648;23.370;2023-12-20T03:44:05;107.40;;;55.78;;
24873;SDS011;12945;42.648;23.370;2023-12-20T03:46:30;111.10;;;55.58;;
24873;SDS011;12945;42.648;23.370;2023-12-20T03:48:56;110.72;;;54.05;;
24873;SDS011;12945;42.648;23.370;2023-12-20T03:51:21;119.18;;;57.53;;
24873;SDS011;12945;42.648;23.370;2023-12-20T03:53:47;109.25;;;53.92;;
24873;SDS011;12945;42.648;23.370;2023-12-20T03:56:12;111.35;;;55.92;;
24873;SDS011;12945;42.648;23.370;2023-12-20T03:58:37;117.03;;;56.03;;
24873;SDS011;12945;42.648;23.370;2023-12-20T04:01:02;114.47;;;56.83;;
24873;SDS011;12945;42.648;23.370;2023-12-20T04:03:28;106.78;;;54.17;;
24873;SDS011;12945;42.648;23.370;2023-12-20T04:05:53;103.35;;;53.45;;
24873;SDS011;12945;42.648;23.370;2023-12-20T04:08:18;100.35;;;51.83;;
24873;SDS011;12945;42.648;23.370;2023-12-20T04:10:43;100.55;;;49.58;;
24873;SDS011;12945;42.648;23.370;2023-12-20T04:13:09;90.97;;;46.85;;
24873;SDS011;12945;42.648;23.370;2023-12-20T04:15:34;86.40;;;44.05;;
24873;SDS011;12945;42.648;23.370;2023-12-20T04:17:59;79.13;;;40.83;;
24873;SDS011;12945;42.648;23.370;2023-12-20T04:20:24;77.18;;;38.78;;
24873;SDS011;12945;42.648;23.370;2023-12-20T04:22:50;80.53;;;40.70;;
24873;SDS011;12945;42.648;23.370;2023-12-20T04:25:15;75.72;;;38.75;;
24873;SDS011;12945;42.648;23.370;2023-12-20T04:27:40;80.90;;;39.17;;
24873;SDS011;12945;42.648;23.370;2023-12-20T04:30:06;67.63;;;34.72;;
24873;SDS011;12945;42.648;23.370;2023-12-20T04:32:31;52.42;;;27.27;;
24873;SDS011;12945;42.648;23.370;2023-12-20T04:34:56;46.90;;;24.73;;
24873;SDS011;12945;42.648;23.370;2023-12-20T04:37:21;42.22;;;21.35;;
24873;SDS011;12945;42.648;23.370;2023-12-20T04:39:47;39.88;;;21.70;;
24873;SDS011;12945;42.648;23.370;2023-12-20T04:42:12;43.78;;;24.08;;
24873;SDS011;12945;42.648;23.370;2023-12-20T04:44:37;43.63;;;23.42;;
24873;SDS011;12945;42.648;23.370;2023-12-20T04:47:03;48.42;;;24.63;;
24873;SDS011;12945;42.648;23.370;2023-12-20T04:49:28;47.03;;;25.10;;
24873;SDS011;12945;42.648;23.370;2023-12-20T04:51:53;45.88;;;24.30;;
24873;SDS011;12945;42.648;23.370;2023-12-20T04:54:18;52.85;;;25.63;;
24873;SDS011;12945;42.648;23.370;2023-12-20T04:56:44;49.95;;;25.40;;
24873;SDS011;12945;42.648;23.370;2023-12-20T04:59:09;50.33;;;25.73;;
24873;SDS011;12945;42.648;23.370;2023-12-20T05:01:34;55.05;;;27.58;;
24873;SDS011;12945;42.648;23.370;2023-12-20T05:03:59;57.17;;;30.10;;
24873;SDS011;12945;42.648;23.370;2023-12-20T05:06:25;59.42;;;29.83;;
24873;SDS011;12945;42.648;23.370;2023-12-20T05:08:50;59.15;;;31.25;;
24873;SDS011;12945;42.648;23.370;2023-12-20T05:11:15;59.33;;;30.77;;
24873;SDS011;12945;42.648;23.370;2023-12-20T05:13:41;51.55;;;27.02;;
24873;SDS011;12945;42.648;23.370;2023-12-20T05:16:06;62.05;;;33.97;;
24873;SDS011;12945;42.648;23.370;2023-12-20T05:18:31;76.07;;;42.88;;
24873;SDS011;12945;42.648;23.370;2023-12-20T05:20:57;118.22;;;55.72;;
24873;SDS011;12945;42.648;23.370;2023-12-20T05:23:22;131.93;;;64.85;;
24873;SDS011;12945;42.648;23.370;2023-12-20T05:25:47;121.00;;;62.30;;
24873;SDS011;12945;42.648;23.370;2023-12-20T05:28:12;132.63;;;63.65;;
24873;SDS011;12945;42.648;23.370;2023-12-20T05:30:38;142.10;;;68.57;;
24873;SDS011;12945;42.648;23.370;2023-12-20T05:33:03;135.48;;;67.82;;
24873;SDS011;12945;42.648;23.370;2023-12-20T05:35:28;133.18;;;66.13;;
24873;SDS011;12945;42.648;23.370;2023-12-20T05:37:53;121.80;;;57.53;;
24873;SDS011;12945;42.648;23.370;2023-12-20T05:40:19;132.93;;;60.33;;
24873;SDS011;12945;42.648;23.370;2023-12-20T05:42:44;132.65;;;60.92;;
24873;SDS011;12945;42.648;23.370;2023-12-20T05:45:09;144.43;;;68.18;;
24873;SDS011;12945;42.648;23.370;2023-12-20T05:47:35;166.90;;;71.57;;
24873;SDS011;12945;42.648;23.370;2023-12-20T05:50:01;175.98;;;76.10;;
24873;SDS011;12945;42.648;23.370;2023-12-20T05:52:26;157.80;;;72.95;;
24873;SDS011;12945;42.648;23.370;2023-12-20T05:54:51;165.82;;;71.10;;
24873;SDS011;12945;42.648;23.370;2023-12-20T05:57:17;143.88;;;62.78;;
24873;SDS011;12945;42.648;23.370;2023-12-20T05:59:42;135.85;;;62.72;;
24873;SDS011;12945;42.648;23.370;2023-12-20T06:02:07;143.05;;;61.15;;
24873;SDS011;12945;42.648;23.370;2023-12-20T06:04:32;164.38;;;65.90;;
24873;SDS011;12945;42.648;23.370;2023-12-20T06:06:58;144.55;;;63.08;;
24873;SDS011;12945;42.648;23.370;2023-12-20T06:09:24;154.55;;;60.35;;
24873;SDS011;12945;42.648;23.370;2023-12-20T06:11:49;139.32;;;57.72;;
24873;SDS011;12945;42.648;23.370;2023-12-20T06:14:16;128.43;;;53.00;;
24873;SDS011;12945;42.648;23.370;2023-12-20T06:16:41;132.25;;;57.55;;
24873;SDS011;12945;42.648;23.370;2023-12-20T06:19:06;154.88;;;63.50;;
24873;SDS011;12945;42.648;23.370;2023-12-20T06:21:31;169.98;;;64.28;;
24873;SDS011;12945;42.648;23.370;2023-12-20T06:23:58;173.88;;;65.35;;
24873;SDS011;12945;42.648;23.370;2023-12-20T06:26:23;171.43;;;66.78;;
24873;SDS011;12945;42.648;23.370;2023-12-20T06:28:48;172.98;;;68.25;;
24873;SDS011;12945;42.648;23.370;2023-12-20T06:31:14;170.00;;;65.63;;
24873;SDS011;12945;42.648;23.370;2023-12-20T06:33:39;160.75;;;65.28;;
24873;SDS011;12945;42.648;23.370;2023-12-20T06:36:06;172.40;;;67.45;;
24873;SDS011;12945;42.648;23.370;2023-12-20T06:38:31;157.98;;;65.50;;
24873;SDS011;12945;42.648;23.370;2023-12-20T06:40:56;142.02;;;62.60;;
24873;SDS011;12945;42.648;23.370;2023-12-20T06:43:23;150.02;;;63.97;;
24873;SDS011;12945;42.648;23.370;2023-12-20T06:45:48;142.02;;;61.45;;
24873;SDS011;12945;42.648;23.370;2023-12-20T06:48:14;146.00;;;62.35;;
24873;SDS011;12945;42.648;23.370;2023-12-20T06:50:39;145.45;;;62.72;;
24873;SDS011;12945;42.648;23.370;2023-12-20T06:53:05;212.30;;;66.95;;
24873;SDS011;12945;42.648;23.370;2023-12-20T06:55:32;136.20;;;60.72;;
24873;SDS011;12945;42.648;23.370;2023-12-20T06:57:57;127.75;;;58.13;;
24873;SDS011;12945;42.648;23.370;2023-12-20T07:00:22;135.25;;;59.95;;
24873;SDS011;12945;42.648;23.370;2023-12-20T07:02:48;137.93;;;60.67;;
24873;SDS011;12945;42.648;23.370;2023-12-20T07:05:15;120.95;;;60.15;;
24873;SDS011;12945;42.648;23.370;2023-12-20T07:07:41;128.90;;;59.80;;
24873;SDS011;12945;42.648;23.370;2023-12-20T07:10:06;127.55;;;59.15;;
24873;SDS011;12945;42.648;23.370;2023-12-20T07:12:32;122.57;;;60.38;;
24873;SDS011;12945;42.648;23.370;2023-12-20T07:14:58;126.03;;;61.80;;
24873;SDS011;12945;42.648;23.370;2023-12-20T07:17:23;124.63;;;61.53;;
24873;SDS011;12945;42.648;23.370;2023-12-20T07:19:48;116.88;;;57.95;;
24873;SDS011;12945;42.648;23.370;2023-12-20T07:22:13;126.43;;;60.22;;
24873;SDS011;12945;42.648;23.370;2023-12-20T07:24:39;120.82;;;56.97;;
24873;SDS011;12945;42.648;23.370;2023-12-20T07:27:04;123.97;;;57.70;;
24873;SDS011;12945;42.648;23.370;2023-12-20T07:29:29;114.85;;;56.33;;
24873;SDS011;12945;42.648;23.370;2023-12-20T07:31:54;114.10;;;54.05;;
24873;SDS011;12945;42.648;23.370;2023-12-20T07:34:20;122.72;;;56.03;;
24873;SDS011;12945;42.648;23.370;2023-12-20T07:36:45;110.00;;;53.03;;
24873;SDS011;12945;42.648;23.370;2023-12-20T07:39:10;117.38;;;54.80;;
24873;SDS011;12945;42.648;23.370;2023-12-20T07:41:36;115.13;;;55.47;;
24873;SDS011;12945;42.648;23.370;2023-12-20T07:44:01;117.13;;;55.42;;
24873;SDS011;12945;42.648;23.370;2023-12-20T07:46:26;105.03;;;51.55;;
24873;SDS011;12945;42.648;23.370;2023-12-20T07:48:52;107.95;;;52.50;;
24873;SDS011;12945;42.648;23.370;2023-12-20T07:51:17;116.85;;;56.08;;
24873;SDS011;12945;42.648;23.370;2023-12-20T07:53:42;115.20;;;56.10;;
24873;SDS011;12945;42.648;23.370;2023-12-20T07:56:14;124.05;;;59.55;;
24873;SDS011;12945;42.648;23.370;2023-12-20T07:58:40;114.18;;;55.22;;
24873;SDS011;12945;42.648;23.370;2023-12-20T08:01:05;112.32;;;53.55;;
24873;SDS011;12945;42.648;23.370;2023-12-20T08:03:30;108.57;;;51.22;;
24873;SDS011;12945;42.648;23.370;2023-12-20T08:05:56;104.82;;;48.72;;
24873;SDS011;12945;42.648;23.370;2023-12-20T08:08:21;91.82;;;46.08;;
24873;SDS011;12945;42.648;23.370;2023-12-20T08:10:46;87.35;;;42.97;;
24873;SDS011;12945;42.648;23.370;2023-12-20T08:13:12;77.75;;;37.40;;
24873;SDS011;12945;42.648;23.370;2023-12-20T08:15:37;86.88;;;41.47;;
24873;SDS011;12945;42.648;23.370;2023-12-20T08:18:02;84.07;;;40.38;;
24873;SDS011;12945;42.648;23.370;2023-12-20T08:20:28;85.18;;;38.85;;
24873;SDS011;12945;42.648;23.370;2023-12-20T08:22:53;96.40;;;42.90;;
24873;SDS011;12945;42.648;23.370;2023-12-20T08:25:18;92.35;;;40.97;;
24873;SDS011;12945;42.648;23.370;2023-12-20T08:27:43;85.57;;;40.10;;
24873;SDS011;12945;42.648;23.370;2023-12-20T08:30:09;83.13;;;36.72;;
24873;SDS011;12945;42.648;23.370;2023-12-20T08:32:34;88.85;;;39.55;;
24873;SDS011;12945;42.648;23.370;2023-12-20T08:35:00;97.65;;;40.47;;
24873;SDS011;12945;42.648;23.370;2023-12-20T08:37:25;96.38;;;42.00;;
24873;SDS011;12945;42.648;23.370;2023-12-20T08:39:50;95.93;;;42.03;;
24873;SDS011;12945;42.648;23.370;2023-12-20T08:42:16;101.60;;;43.05;;
24873;SDS011;12945;42.648;23.370;2023-12-20T08:44:41;102.47;;;44.70;;
24873;SDS011;12945;42.648;23.370;2023-12-20T08:47:06;93.30;;;41.42;;
24873;SDS011;12945;42.648;23.370;2023-12-20T08:49:32;95.45;;;40.97;;
24873;SDS011;12945;42.648;23.370;2023-12-20T08:51:57;92.65;;;40.58;;
24873;SDS011;12945;42.648;23.370;2023-12-20T08:54:23;90.45;;;39.15;;
24873;SDS011;12945;42.648;23.370;2023-12-20T08:56:48;87.25;;;38.22;;
24873;SDS011;12945;42.648;23.370;2023-12-20T08:59:13;88.97;;;38.53;;
24873;SDS011;12945;42.648;23.370;2023-12-20T09:01:39;99.07;;;44.45;;
24873;SDS011;12945;42.648;23.370;2023-12-20T09:04:04;117.45;;;51.00;;
24873;SDS011;12945;42.648;23.370;2023-12-20T09:06:31;124.03;;;54.53;;
24873;SDS011;12945;42.648;23.370;2023-12-20T09:08:56;125.70;;;55.97;;
24873;SDS011;12945;42.648;23.370;2023-12-20T09:11:21;120.43;;;51.38;;
24873;SDS011;12945;42.648;23.370;2023-12-20T09:13:47;114.72;;;52.00;;
24873;SDS011;12945;42.648;23.370;2023-12-20T09:16:12;116.47;;;52.50;;
24873;SDS011;12945;42.648;23.370;2023-12-20T09:18:38;115.82;;;50.65;;
24873;SDS011;12945;42.648;23.370;2023-12-20T09:21:04;131.20;;;55.25;;
24873;SDS011;12945;42.648;23.370;2023-12-20T09:23:29;118.82;;;54.72;;
24873;SDS011;12945;42.648;23.370;2023-12-20T09:25:54;135.77;;;59.13;;
24873;SDS011;12945;42.648;23.370;2023-12-20T09:28:19;137.70;;;58.30;;
24873;SDS011;12945;42.648;23.370;2023-12-20T09:30:45;119.13;;;53.22;;
24873;SDS011;12945;42.648;23.370;2023-12-20T09:33:11;109.88;;;46.55;;
24873;SDS011;12945;42.648;23.370;2023-12-20T09:35:36;106.50;;;48.42;;
24873;SDS011;12945;42.648;23.370;2023-12-20T09:38:02;97.68;;;44.22;;
24873;SDS011;12945;42.648;23.370;2023-12-20T09:40:27;104.95;;;44.60;;
24873;SDS011;12945;42.648;23.370;2023-12-20T09:43:02;112.90;;;46.80;;
24873;SDS011;12945;42.648;23.370;2023-12-20T09:45:28;104.22;;;46.08;;
24873;SDS011;12945;42.648;23.370;2023-12-20T09:47:55;97.43;;;45.17;;
24873;SDS011;12945;42.648;23.370;2023-12-20T09:50:22;103.88;;;46.10;;
24873;SDS011;12945;42.648;23.370;2023-12-20T09:52:49;106.18;;;46.80;;
24873;SDS011;12945;42.648;23.370;2023-12-20T09:55:14;98.85;;;44.85;;
24873;SDS011;12945;42.648;23.370;2023-12-20T09:57:40;103.65;;;47.78;;
24873;SDS011;12945;42.648;23.370;2023-12-20T10:00:05;100.10;;;46.15;;
24873;SDS011;12945;42.648;23.370;2023-12-20T10:02:31;104.35;;;46.63;;
24873;SDS011;12945;42.648;23.370;2023-12-20T10:04:57;98.95;;;45.75;;
24873;SDS011;12945;42.648;23.370;2023-12-20T10:07:22;101.70;;;45.88;;
24873;SDS011;12945;42.648;23.370;2023-12-20T10:09:47;98.82;;;46.97;;
24873;SDS011;12945;42.648;23.370;2023-12-20T10:12:13;98.20;;;48.08;;
24873;SDS011;12945;42.648;23.370;2023-12-20T10:14:38;93.10;;;46.65;;
24873;SDS011;12945;42.648;23.370;2023-12-20T10:17:04;103.18;;;48.65;;
24873;SDS011;12945;42.648;23.370;2023-12-20T10:19:30;109.93;;;52.60;;
24873;SDS011;12945;42.648;23.370;2023-12-20T10:21:55;108.70;;;52.70;;
24873;SDS011;12945;42.648;23.370;2023-12-20T10:24:20;102.97;;;51.03;;
24873;SDS011;12945;42.648;23.370;2023-12-20T10:26:46;110.18;;;53.42;;
24873;SDS011;12945;42.648;23.370;2023-12-20T10:29:11;101.20;;;50.45;;
24873;SDS011;12945;42.648;23.370;2023-12-20T10:31:36;99.20;;;52.47;;
24873;SDS011;12945;42.648;23.370;2023-12-20T10:34:03;103.15;;;50.85;;
24873;SDS011;12945;42.648;23.370;2023-12-20T10:36:30;96.93;;;48.75;;
24873;SDS011;12945;42.648;23.370;2023-12-20T10:38:56;100.28;;;50.78;;
24873;SDS011;12945;42.648;23.370;2023-12-20T10:41:28;92.07;;;49.50;;
24873;SDS011;12945;42.648;23.370;2023-12-20T10:44:03;91.10;;;47.63;;
24873;SDS011;12945;42.648;23.370;2023-12-20T10:46:32;92.15;;;49.53;;
24873;SDS011;12945;42.648;23.370;2023-12-20T10:49:01;93.68;;;49.08;;
24873;SDS011;12945;42.648;23.370;2023-12-20T10:51:27;83.80;;;45.75;;
24873;SDS011;12945;42.648;23.370;2023-12-20T10:53:54;88.25;;;47.70;;
24873;SDS011;12945;42.648;23.370;2023-12-20T10:56:20;95.53;;;49.15;;
24873;SDS011;12945;42.648;23.370;2023-12-20T10:58:54;84.00;;;46.28;;
24873;SDS011;12945;42.648;23.370;2023-12-20T11:01:19;81.78;;;46.65;;
24873;SDS011;12945;42.648;23.370;2023-12-20T11:03:48;82.63;;;47.38;;
24873;SDS011;12945;42.648;23.370;2023-12-20T11:08:59;75.72;;;44.85;;
24873;SDS011;12945;42.648;23.370;2023-12-20T11:11:38;82.63;;;45.67;;
24873;SDS011;12945;42.648;23.370;2023-12-20T11:14:06;84.90;;;46.63;;
24873;SDS011;12945;42.648;23.370;2023-12-20T11:16:36;83.93;;;46.90;;
24873;SDS011;12945;42.648;23.370;2023-12-20T11:19:05;85.47;;;47.42;;
24873;SDS011;12945;42.648;23.370;2023-12-20T11:21:30;89.72;;;48.15;;
24873;SDS011;12945;42.648;23.370;2023-12-20T11:23:56;80.20;;;47.97;;
24873;SDS011;12945;42.648;23.370;2023-12-20T11:26:27;87.28;;;47.92;;
24873;SDS011;12945;42.648;23.370;2023-12-20T11:31:42;93.57;;;49.70;;
24873;SDS011;12945;42.648;23.370;2023-12-20T11:34:13;97.75;;;51.47;;
24873;SDS011;12945;42.648;23.370;2023-12-20T11:36:42;97.05;;;51.70;;
24873;SDS011;12945;42.648;23.370;2023-12-20T11:39:07;93.53;;;49.90;;
24873;SDS011;12945;42.648;23.370;2023-12-20T11:41:33;90.07;;;49.60;;
24873;SDS011;12945;42.648;23.370;2023-12-20T11:43:59;83.40;;;46.53;;
24873;SDS011;12945;42.648;23.370;2023-12-20T11:46:26;89.28;;;47.85;;
24873;SDS011;12945;42.648;23.370;2023-12-20T11:48:51;84.95;;;47.70;;
24873;SDS011;12945;42.648;23.370;2023-12-20T11:51:16;78.80;;;47.00;;
24873;SDS011;12945;42.648;23.370;2023-12-20T11:53:42;76.57;;;45.60;;
24873;SDS011;12945;42.648;23.370;2023-12-20T11:56:07;71.57;;;43.78;;
24873;SDS011;12945;42.648;23.370;2023-12-20T11:58:36;67.53;;;41.88;;
24873;SDS011;12945;42.648;23.370;2023-12-20T12:01:01;73.97;;;42.47;;
24873;SDS011;12945;42.648;23.370;2023-12-20T12:03:29;65.32;;;41.63;;
24873;SDS011;12945;42.648;23.370;2023-12-20T12:05:55;63.75;;;39.47;;
24873;SDS011;12945;42.648;23.370;2023-12-20T12:08:20;70.32;;;41.15;;
24873;SDS011;12945;42.648;23.370;2023-12-20T12:10:45;71.45;;;40.78;;
24873;SDS011;12945;42.648;23.370;2023-12-20T12:13:11;67.30;;;42.67;;
24873;SDS011;12945;42.648;23.370;2023-12-20T12:15:36;72.32;;;43.15;;
24873;SDS011;12945;42.648;23.370;2023-12-20T12:18:02;76.05;;;46.30;;
24873;SDS011;12945;42.648;23.370;2023-12-20T12:20:28;71.60;;;43.55;;
24873;SDS011;12945;42.648;23.370;2023-12-20T12:25:24;71.47;;;43.88;;
24873;SDS011;12945;42.648;23.370;2023-12-20T12:27:50;73.30;;;46.10;;
24873;SDS011;12945;42.648;23.370;2023-12-20T12:30:16;76.85;;;45.60;;
24873;SDS011;12945;42.648;23.370;2023-12-20T12:32:43;66.78;;;43.10;;
24873;SDS011;12945;42.648;23.370;2023-12-20T12:35:08;74.88;;;46.28;;
24873;SDS011;12945;42.648;23.370;2023-12-20T12:37:35;74.35;;;45.35;;
24873;SDS011;12945;42.648;23.370;2023-12-20T12:40:03;79.47;;;47.28;;
24873;SDS011;12945;42.648;23.370;2023-12-20T12:42:30;71.00;;;44.25;;
24873;SDS011;12945;42.648;23.370;2023-12-20T12:44:55;68.78;;;44.10;;
24873;SDS011;12945;42.648;23.370;2023-12-20T12:47:21;64.90;;;41.05;;
24873;SDS011;12945;42.648;23.370;2023-12-20T12:49:47;66.88;;;41.97;;
24873;SDS011;12945;42.648;23.370;2023-12-20T12:52:12;73.85;;;42.10;;
24873;SDS011;12945;42.648;23.370;2023-12-20T12:54:37;68.72;;;42.70;;
24873;SDS011;12945;42.648;23.370;2023-12-20T12:57:02;72.93;;;42.15;;
24873;SDS011;12945;42.648;23.370;2023-12-20T12:59:28;71.38;;;42.58;;
24873;SDS011;12945;42.648;23.370;2023-12-20T13:01:53;68.15;;;41.45;;
24873;SDS011;12945;42.648;23.370;2023-12-20T13:04:19;72.22;;;42.67;;
24873;SDS011;12945;42.648;23.370;2023-12-20T13:06:44;72.63;;;42.97;;
24873;SDS011;12945;42.648;23.370;2023-12-20T13:09:09;74.38;;;43.83;;
24873;SDS011;12945;42.648;23.370;2023-12-20T13:11:34;71.30;;;41.92;;
24873;SDS011;12945;42.648;23.370;2023-12-20T13:14:00;79.85;;;45.05;;
24873;SDS011;12945;42.648;23.370;2023-12-20T13:16:25;79.47;;;43.88;;
24873;SDS011;12945;42.648;23.370;2023-12-20T13:18:50;85.13;;;46.25;;
24873;SDS011;12945;42.648;23.370;2023-12-20T13:21:16;88.70;;;44.78;;
24873;SDS011;12945;42.648;23.370;2023-12-20T13:23:41;77.32;;;44.53;;
24873;SDS011;12945;42.648;23.370;2023-12-20T13:26:07;80.72;;;44.33;;
24873;SDS011;12945;42.648;23.370;2023-12-20T13:28:32;83.78;;;46.40;;
24873;SDS011;12945;42.648;23.370;2023-12-20T13:30:58;88.75;;;46.45;;
24873;SDS011;12945;42.648;23.370;2023-12-20T13:33:23;77.15;;;44.58;;
24873;SDS011;12945;42.648;23.370;2023-12-20T13:35:48;87.18;;;46.10;;
24873;SDS011;12945;42.648;23.370;2023-12-20T13:38:13;100.10;;;52.95;;
24873;SDS011;12945;42.648;23.370;2023-12-20T13:40:39;88.63;;;46.47;;
24873;SDS011;12945;42.648;23.370;2023-12-20T13:43:04;82.40;;;43.45;;
24873;SDS011;12945;42.648;23.370;2023-12-20T13:45:31;89.03;;;45.53;;
24873;SDS011;12945;42.648;23.370;2023-12-20T13:47:56;94.22;;;47.83;;
24873;SDS011;12945;42.648;23.370;2023-12-20T13:50:21;85.72;;;46.15;;
24873;SDS011;12945;42.648;23.370;2023-12-20T13:52:47;96.45;;;47.88;;
24873;SDS011;12945;42.648;23.370;2023-12-20T13:55:12;93.25;;;46.58;;
24873;SDS011;12945;42.648;23.370;2023-12-20T13:57:38;94.93;;;47.78;;
24873;SDS011;12945;42.648;23.370;2023-12-20T14:00:04;92.28;;;47.53;;
24873;SDS011;12945;42.648;23.370;2023-12-20T14:02:30;90.60;;;45.88;;